Brownstown, IL (62418)

1:50 AM CDT on September 01, 2016 (GMT -0500)
East Brownstown | | Change Station

Elev 597 ft 38.99 °N, 88.95 °W | Updated 9 minutes ago

Clear
Clear
63.7 °F
Feels Like 63.7 °F
N
3.2
Wind Variable Wind from WNW

Today
High -- | Low -- °F
--% Chance of Precip.
Yesterday
High -- | Low -- °F
Precip. -- in
Pressure 30.08 in
Visibility 10.0 miles
Clouds Clear
Dew Point 62 °F
Humidity 94%
Rainfall 0.00 in
Snow Depth Not available.
6:25 AM 7:25 PM
Waning Crescent, 0% visible
METAR K1H2 010635Z AUTO 34004KT 10SM CLR 18/17 A3008 RMK AO2 T01750165
Pressure 30.08 in
Visibility 10.0 miles
Clouds Clear
Dew Point 62 °F
Humidity 94%
Rainfall 0.00 in
Snow Depth Not available.
6:25 AM 7:25 PM
Waning Crescent, 0% visible
METAR K1H2 010635Z AUTO 34004KT 10SM CLR 18/17 A3008 RMK AO2 T01750165

10-Day Weather Forecast

Almanac

Astronomy

Sep. 01, 2016 Rise Set
Actual Time
Civil Twilight
Nautical Twilight
Astronomical Twilight
Moon
Length of Visible Light
Length of Day
Tomorrow will be .
, % of the Moon is Illuminated

Today's Extremes

State Highs State Lows

Community

WunderPhotos

Upload Photos

1,936,315 photos uploaded!

WunderBlog® & News

Nearby

Air Quality

  Air Quality AQ Index Pollutant
Not available.

Snow Depth

Station Depth Elevation

Earthquake Activity

City Distance Mag. Time & Date
Minimum magnitude displayed is 2.5.

Coastal Water Temperatures

Place Temperature

Stations

Nearby Weather Stations

Station Location Temp. Windchill Dew Point Humidity Wind Precip. Elev Updated Type
                   

Watches & Warnings

There are currently no watches in effect.